Time,TemperatureF,DewpointF,PressureIn,WindDirection,WindDirectionDegrees,WindSpeedMPH,WindSpeedGustMPH,Humidity,HourlyPrecipIn,Conditions,Clouds,dailyrainin,SoftwareType,DateUTC
2013-02-01 00:01:00,34.2,21.8,30.00,SW,219,0.0,6.0,60,0.00,,,0.00,WeatherCatV1.10B1784,2013-02-01 05:01:00,
2013-02-01 00:06:00,34.4,22.4,30.00,NW,321,0.0,4.0,61,0.00,,,0.00,WeatherCatV1.10B1784,2013-02-01 05:06:00,
2013-02-01 00:11:00,34.5,22.1,30.00,WSW,255,0.0,0.0,60,0.00,,,0.00,WeatherCatV1.10B1784,2013-02-01 05:11:00,
2013-02-01 00:16:00,34.5,22.5,30.00,SW,234,1.0,1.0,61,0.00,,,0.00,WeatherCatV1.10B1784,2013-02-01 05:16:00,
2013-02-01 00:21:00,34.6,22.2,30.00,SW,236,0.0,2.0,60,0.00,,,0.00,WeatherCatV1.10B1784,2013-02-01 05:21:00,
2013-02-01 00:26:00,34.9,22.0,30.00,SE,144,0.0,4.0,59,0.00,,,0.00,WeatherCatV1.10B1784,2013-02-01 05:26:00,
2013-02-01 00:31:00,35.1,22.2,30.00,SSW,199,0.0,1.0,59,0.00,,,0.00,WeatherCatV1.10B1784,2013-02-01 05:31:00,
2013-02-01 00:36:00,35.1,22.6,30.00,SSW,198,2.0,2.0,60,0.00,,,0.00,WeatherCatV1.10B1784,2013-02-01 05:36:00,
2013-02-01 00:41:00,35.0,22.5,30.00,WSW,246,3.0,3.0,60,0.00,,,0.00,WeatherCatV1.10B1784,2013-02-01 05:41:00,
2013-02-01 00:46:00,35.2,22.3,30.00,WSW,246,0.0,5.0,59,0.00,,,0.00,WeatherCatV1.10B1784,2013-02-01 05:46:00,
2013-02-01 00:51:00,35.4,22.9,30.00,SW,233,4.0,4.0,60,0.00,,,0.00,WeatherCatV1.10B1784,2013-02-01 05:51:00,
2013-02-01 00:56:00,35.5,23.4,30.00,SSE,161,1.0,3.0,61,0.00,,,0.00,WeatherCatV1.10B1784,2013-02-01 05:56:00,
2013-02-01 01:01:00,35.5,23.0,29.99,SSW,204,1.0,3.0,60,0.00,,,0.00,WeatherCatV1.10B1784,2013-02-01 06:01:00,
2013-02-01 01:06:00,35.8,23.3,30.00,SSW,204,4.0,7.0,60,0.00,,,0.00,WeatherCatV1.10B1784,2013-02-01 06:06:00,
2013-02-01 01:11:00,36.3,23.4,29.99,SE,146,1.0,5.0,59,0.00,,,0.00,WeatherCatV1.10B1784,2013-02-01 06:11:00,
2013-02-01 01:16:00,36.5,23.6,29.99,South,185,0.0,1.0,59,0.00,,,0.00,WeatherCatV1.10B1784,2013-02-01 06:16:00,
2013-02-01 01:21:00,36.8,23.8,29.98,SSE,159,2.0,10.0,59,0.00,,,0.00,WeatherCatV1.10B1784,2013-02-01 06:21:00,
2013-02-01 01:26:00,37.1,23.7,29.99,West,275,3.0,6.0,58,0.00,,,0.00,WeatherCatV1.10B1784,2013-02-01 06:26:00,
2013-02-01 01:31:00,37.4,24.4,29.98,SW,229,5.0,6.0,59,0.00,,,0.00,WeatherCatV1.10B1784,2013-02-01 06:31:00,
2013-02-01 01:36:00,37.5,24.1,29.98,West,263,0.0,4.0,58,0.00,,,0.00,WeatherCatV1.10B1784,2013-02-01 06:36:00,
2013-02-01 01:41:00,37.6,24.2,29.97,West,271,6.0,6.0,58,0.00,,,0.00,WeatherCatV1.10B1784,2013-02-01 06:41:00,
2013-02-01 01:46:00,37.6,24.2,29.97,SSE,167,6.0,11.0,58,0.00,,,0.00,WeatherCatV1.10B1784,2013-02-01 06:46:00,
2013-02-01 01:51:00,37.9,24.5,29.97,NNE,13,1.0,6.0,58,0.00,,,0.00,WeatherCatV1.10B1784,2013-02-01 06:51:00,
2013-02-01 01:56:00,37.9,24.5,29.97,ENE,70,3.0,3.0,58,0.00,,,0.00,WeatherCatV1.10B1784,2013-02-01 06:56:00,
2013-02-01 02:01:00,37.9,24.5,29.96,WSW,253,2.0,4.0,58,0.00,,,0.00,WeatherCatV1.10B1784,2013-02-01 07:01:00,
2013-02-01 02:06:00,38.0,24.6,29.96,SW,225,2.0,2.0,58,0.00,,,0.00,WeatherCatV1.10B1784,2013-02-01 07:06:00,
2013-02-01 02:11:00,38.1,24.6,29.96,NE,49,1.0,1.0,58,0.00,,,0.00,WeatherCatV1.10B1784,2013-02-01 07:11:00,
2013-02-01 02:16:00,38.4,24.9,29.96,West,261,1.0,2.0,58,0.00,,,0.00,WeatherCatV1.10B1784,2013-02-01 07:16:00,
2013-02-01 02:21:00,38.6,24.7,29.95,NNE,17,1.0,4.0,57,0.00,,,0.00,WeatherCatV1.10B1784,2013-02-01 07:21:00,
2013-02-01 02:26:00,38.8,24.5,29.95,South,184,2.0,5.0,56,0.00,,,0.00,WeatherCatV1.10B1784,2013-02-01 07:26:00,
2013-02-01 02:31:00,39.1,24.7,29.95,WNW,298,2.0,9.0,56,0.00,,,0.00,WeatherCatV1.10B1784,2013-02-01 07:31:00,
2013-02-01 02:36:00,39.2,24.8,29.95,South,180,2.0,4.0,56,0.00,,,0.00,WeatherCatV1.10B1784,2013-02-01 07:36:00,
2013-02-01 02:41:00,39.5,25.1,29.95,NNW,338,0.0,0.0,56,0.00,,,0.00,WeatherCatV1.10B1784,2013-02-01 07:41:00,
2013-02-01 02:46:00,39.5,25.5,29.94,SSW,194,2.0,3.0,57,0.00,,,0.00,WeatherCatV1.10B1784,2013-02-01 07:46:00,
2013-02-01 02:51:00,39.6,25.6,29.94,SW,227,0.0,4.0,57,0.00,,,0.00,WeatherCatV1.10B1784,2013-02-01 07:51:00,
2013-02-01 02:56:00,39.7,25.3,29.94,North,355,0.0,1.0,56,0.00,,,0.00,WeatherCatV1.10B1784,2013-02-01 07:56:00,
2013-02-01 03:01:00,39.9,25.5,29.94,SSE,168,3.0,8.0,56,0.00,,,0.00,WeatherCatV1.10B1784,2013-02-01 08:01:00,
2013-02-01 03:06:00,40.0,25.6,29.93,SW,231,2.0,8.0,56,0.00,,,0.00,WeatherCatV1.10B1784,2013-02-01 08:06:00,
2013-02-01 03:11:00,40.0,25.6,29.93,ENE,78,1.0,4.0,56,0.00,,,0.00,WeatherCatV1.10B1784,2013-02-01 08:11:00,
2013-02-01 03:16:00,40.1,25.7,29.93,ESE,110,3.0,4.0,56,0.00,,,0.00,WeatherCatV1.10B1784,2013-02-01 08:16:00,
2013-02-01 03:21:00,40.1,25.7,29.94,SW,227,2.0,3.0,56,0.00,,,0.00,WeatherCatV1.10B1784,2013-02-01 08:21:00,
2013-02-01 03:26:00,40.1,26.1,29.93,SW,221,2.0,4.0,57,0.00,,,0.00,WeatherCatV1.10B1784,2013-02-01 08:26:00,
2013-02-01 03:31:00,39.9,26.3,29.94,East,86,1.0,7.0,58,0.00,,,0.00,WeatherCatV1.10B1784,2013-02-01 08:31:00,
2013-02-01 03:36:00,39.5,27.2,29.94,West,267,3.0,3.0,61,0.00,,,0.00,WeatherCatV1.10B1784,2013-02-01 08:36:00,
2013-02-01 03:41:00,38.8,28.1,29.95,ENE,59,7.0,9.0,65,0.00,,,0.00,WeatherCatV1.10B1784,2013-02-01 08:41:00,
2013-02-01 03:46:00,38.2,28.9,29.96,South,173,3.0,5.0,69,0.00,,,0.00,WeatherCatV1.10B1784,2013-02-01 08:46:00,
2013-02-01 03:51:00,37.3,29.5,29.96,SW,236,2.0,7.0,73,0.00,,,0.00,WeatherCatV1.10B1784,2013-02-01 08:51:00,
2013-02-01 03:56:00,36.4,30.2,29.96,South,180,3.0,13.0,78,0.00,,,0.00,WeatherCatV1.10B1784,2013-02-01 08:56:00,
2013-02-01 04:01:00,35.6,30.7,29.97,South,174,1.0,5.0,82,0.00,,,0.00,WeatherCatV1.10B1784,2013-02-01 09:01:00,
2013-02-01 04:06:00,34.8,30.5,29.97,South,173,4.0,5.0,84,0.00,,,0.00,WeatherCatV1.10B1784,2013-02-01 09:06:00,
2013-02-01 04:11:00,34.2,30.5,29.97,ESE,112,3.0,4.0,86,0.00,,,0.00,WeatherCatV1.10B1784,2013-02-01 09:11:00,
2013-02-01 04:16:00,33.7,30.0,29.98,SSW,195,4.0,7.0,86,0.00,,,0.00,WeatherCatV1.10B1784,2013-02-01 09:16:00,
2013-02-01 04:21:00,33.1,29.4,29.98,SSE,165,3.0,4.0,86,0.00,,,0.00,WeatherCatV1.10B1784,2013-02-01 09:21:00,
2013-02-01 04:26:00,32.7,29.5,29.98,ESE,117,4.0,6.0,88,0.00,,,0.00,WeatherCatV1.10B1784,2013-02-01 09:26:00,
2013-02-01 04:31:00,32.3,29.2,29.99,South,175,5.0,6.0,88,0.00,,,0.00,WeatherCatV1.10B1784,2013-02-01 09:31:00,
2013-02-01 04:36:00,32.0,28.9,29.99,NW,319,2.0,5.0,88,0.00,,,0.00,WeatherCatV1.10B1784,2013-02-01 09:36:00,
2013-02-01 04:41:00,31.7,28.6,29.98,SSW,200,9.0,11.0,88,0.00,,,0.00,WeatherCatV1.10B1784,2013-02-01 09:41:00,
2013-02-01 04:46:00,31.5,28.6,29.98,South,182,5.0,5.0,89,0.00,,,0.00,WeatherCatV1.10B1784,2013-02-01 09:46:00,
2013-02-01 04:51:00,31.3,27.9,29.99,SSW,194,1.0,6.0,87,0.00,,,0.00,WeatherCatV1.10B1784,2013-02-01 09:51:00,
2013-02-01 04:56:00,31.0,27.9,30.00,SSE,155,2.0,7.0,88,0.00,,,0.00,WeatherCatV1.10B1784,2013-02-01 09:56:00,
2013-02-01 05:01:00,30.5,27.7,30.00,SSE,163,3.0,6.0,89,0.00,,,0.00,WeatherCatV1.10B1784,2013-02-01 10:01:00,
2013-02-01 05:06:00,29.8,27.0,30.00,South,176,4.0,6.0,89,0.00,,,0.00,WeatherCatV1.10B1784,2013-02-01 10:06:00,
2013-02-01 05:11:00,28.9,26.1,30.01,ESE,113,1.0,4.0,89,0.00,,,0.00,WeatherCatV1.10B1784,2013-02-01 10:11:00,
2013-02-01 05:16:00,28.4,25.8,30.01,South,175,3.0,9.0,90,0.00,,,0.00,WeatherCatV1.10B1784,2013-02-01 10:16:00,
2013-02-01 05:21:00,28.0,25.5,30.02,SSE,157,4.0,6.0,90,0.00,,,0.00,WeatherCatV1.10B1784,2013-02-01 10:21:00,
2013-02-01 05:26:00,27.6,24.8,30.02,SW,223,2.0,6.0,89,0.00,,,0.00,WeatherCatV1.10B1784,2013-02-01 10:26:00,
2013-02-01 05:31:00,27.1,24.0,30.02,SW,227,7.0,9.0,88,0.00,,,0.00,WeatherCatV1.10B1784,2013-02-01 10:31:00,
2013-02-01 05:36:00,26.7,23.6,30.03,South,179,2.0,6.0,88,0.00,,,0.00,WeatherCatV1.10B1784,2013-02-01 10:36:00,
2013-02-01 05:41:00,26.2,23.1,30.04,South,181,7.0,9.0,88,0.00,,,0.00,WeatherCatV1.10B1784,2013-02-01 10:41:00,
2013-02-01 05:46:00,25.8,23.0,30.04,SSE,167,5.0,5.0,89,0.00,,,0.00,WeatherCatV1.10B1784,2013-02-01 10:46:00,
2013-02-01 05:51:00,25.2,22.2,30.05,West,261,3.0,5.0,88,0.00,,,0.00,WeatherCatV1.10B1784,2013-02-01 10:51:00,
2013-02-01 05:56:00,24.8,21.8,30.05,SSE,161,2.0,5.0,88,0.00,,,0.00,WeatherCatV1.10B1784,2013-02-01 10:56:00,
2013-02-01 06:01:00,24.4,20.6,30.05,SW,222,4.0,6.0,85,0.00,,,0.00,WeatherCatV1.10B1784,2013-02-01 11:01:00,
2013-02-01 06:06:00,24.2,19.2,30.05,South,190,4.0,4.0,81,0.00,,,0.00,WeatherCatV1.10B1784,2013-02-01 11:06:00,
2013-02-01 06:11:00,24.1,18.8,30.06,South,174,2.0,5.0,80,0.00,,,0.00,WeatherCatV1.10B1784,2013-02-01 11:11:00,
2013-02-01 06:16:00,23.9,17.8,30.06,SSE,161,2.0,9.0,77,0.00,,,0.00,WeatherCatV1.10B1784,2013-02-01 11:16:00,
2013-02-01 06:21:00,23.6,17.5,30.07,South,181,4.0,4.0,77,0.00,,,0.00,WeatherCatV1.10B1784,2013-02-01 11:21:00,
2013-02-01 06:26:00,23.4,17.3,30.07,South,184,3.0,4.0,77,0.00,,,0.00,WeatherCatV1.10B1784,2013-02-01 11:26:00,
2013-02-01 06:31:00,23.1,17.0,30.08,SSW,203,5.0,7.0,77,0.00,,,0.00,WeatherCatV1.10B1784,2013-02-01 11:31:00,
2013-02-01 06:36:00,22.8,16.4,30.08,West,279,1.0,8.0,76,0.00,,,0.00,WeatherCatV1.10B1784,2013-02-01 11:36:00,
2013-02-01 06:41:00,22.6,16.2,30.09,North,0,3.0,7.0,76,0.00,,,0.00,WeatherCatV1.10B1784,2013-02-01 11:41:00,
2013-02-01 06:46:00,22.3,15.6,30.09,South,188,4.0,7.0,75,0.00,,,0.00,WeatherCatV1.10B1784,2013-02-01 11:46:00,
2013-02-01 06:51:00,22.2,15.2,30.09,SW,221,2.0,4.0,74,0.00,,,0.00,WeatherCatV1.10B1784,2013-02-01 11:51:00,
2013-02-01 06:56:00,22.0,15.0,30.09,SE,126,3.0,7.0,74,0.00,,,0.00,WeatherCatV1.10B1784,2013-02-01 11:56:00,
2013-02-01 07:01:00,21.8,14.8,30.10,South,173,4.0,6.0,74,0.00,,,0.00,WeatherCatV1.10B1784,2013-02-01 12:01:00,
2013-02-01 07:06:00,21.6,14.6,30.10,SSE,165,0.0,8.0,74,0.00,,,0.00,WeatherCatV1.10B1784,2013-02-01 12:06:00,
2013-02-01 07:11:00,21.6,14.6,30.10,SSW,201,3.0,5.0,74,0.00,,,0.00,WeatherCatV1.10B1784,2013-02-01 12:11:00,
2013-02-01 07:16:00,21.4,14.7,30.11,South,184,8.0,9.0,75,0.00,,,0.00,WeatherCatV1.10B1784,2013-02-01 12:16:00,
2013-02-01 07:21:00,21.3,14.3,30.11,SSW,192,4.0,7.0,74,0.00,,,0.00,WeatherCatV1.10B1784,2013-02-01 12:21:00,
2013-02-01 07:26:00,21.2,14.8,30.11,SE,140,1.0,4.0,76,0.00,,,0.00,WeatherCatV1.10B1784,2013-02-01 12:26:00,
2013-02-01 07:31:00,21.1,14.4,30.12,South,173,5.0,6.0,75,0.00,,,0.00,WeatherCatV1.10B1784,2013-02-01 12:31:00,
2013-02-01 07:36:00,21.0,14.6,30.11,West,265,1.0,12.0,76,0.00,,,0.00,WeatherCatV1.10B1784,2013-02-01 12:36:00,
2013-02-01 07:41:00,20.9,14.8,30.12,SW,221,6.0,6.0,77,0.00,,,0.00,WeatherCatV1.10B1784,2013-02-01 12:41:00,
2013-02-01 07:46:00,20.8,15.3,30.13,SSW,197,2.0,5.0,79,0.00,,,0.00,WeatherCatV1.10B1784,2013-02-01 12:46:00,
2013-02-01 07:51:00,20.5,15.9,30.13,SSW,212,6.0,7.0,82,0.00,,,0.00,WeatherCatV1.10B1784,2013-02-01 12:51:00,
2013-02-01 07:56:00,20.3,15.7,30.13,South,170,3.0,6.0,82,0.00,,,0.00,WeatherCatV1.10B1784,2013-02-01 12:56:00,
2013-02-01 08:01:00,20.2,15.6,30.14,SW,229,5.0,6.0,82,0.00,,,0.00,WeatherCatV1.10B1784,2013-02-01 13:01:00,
2013-02-01 08:06:00,20.0,15.1,30.14,SSW,205,4.0,7.0,81,0.00,,,0.00,WeatherCatV1.10B1784,2013-02-01 13:06:00,
2013-02-01 08:11:00,19.8,14.6,30.14,SW,215,3.0,7.0,80,0.00,,,0.00,WeatherCatV1.10B1784,2013-02-01 13:11:00,
2013-02-01 08:16:00,19.5,14.1,30.15,SSE,154,2.0,8.0,79,0.00,,,0.00,WeatherCatV1.10B1784,2013-02-01 13:16:00,
2013-02-01 08:21:00,19.2,13.8,30.15,SW,229,5.0,6.0,79,0.00,,,0.00,WeatherCatV1.10B1784,2013-02-01 13:21:00,
2013-02-01 08:26:00,19.1,13.7,30.15,SW,221,3.0,5.0,79,0.00,,,0.00,WeatherCatV1.10B1784,2013-02-01 13:26:00,
2013-02-01 08:31:00,19.0,13.0,30.15,SSW,199,4.0,6.0,77,0.00,,,0.00,WeatherCatV1.10B1784,2013-02-01 13:31:00,
2013-02-01 08:36:00,18.7,12.4,30.16,SW,225,4.0,7.0,76,0.00,,,0.00,WeatherCatV1.10B1784,2013-02-01 13:36:00,
2013-02-01 08:41:00,18.5,11.9,30.16,South,180,2.0,9.0,75,0.00,,,0.00,WeatherCatV1.10B1784,2013-02-01 13:41:00,
2013-02-01 08:46:00,18.6,12.3,30.16,SSW,202,1.0,4.0,76,0.00,,,0.00,WeatherCatV1.10B1784,2013-02-01 13:46:00,
2013-02-01 08:51:00,18.7,12.4,30.17,WSW,244,5.0,7.0,76,0.00,,,0.00,WeatherCatV1.10B1784,2013-02-01 13:51:00,
2013-02-01 08:56:00,18.7,12.1,30.17,South,178,2.0,6.0,75,0.00,,,0.00,WeatherCatV1.10B1784,2013-02-01 13:56:00,
2013-02-01 09:01:00,18.6,12.0,30.17,SSE,156,5.0,6.0,75,0.00,,,0.00,WeatherCatV1.10B1784,2013-02-01 14:01:00,
2013-02-01 09:06:00,18.4,11.8,30.18,SSW,196,3.0,4.0,75,0.00,,,0.00,WeatherCatV1.10B1784,2013-02-01 14:06:00,
2013-02-01 09:11:00,18.6,12.3,30.18,SSW,194,5.0,8.0,76,0.00,,,0.00,WeatherCatV1.10B1784,2013-02-01 14:11:00,
2013-02-01 09:16:00,18.9,12.6,30.18,SSW,208,8.0,8.0,76,0.00,,,0.00,WeatherCatV1.10B1784,2013-02-01 14:16:00,
2013-02-01 09:21:00,19.0,12.1,30.18,South,170,3.0,11.0,74,0.00,,,0.00,WeatherCatV1.10B1784,2013-02-01 14:21:00,
2013-02-01 09:26:00,19.1,12.2,30.19,SSW,211,5.0,12.0,74,0.00,,,0.00,WeatherCatV1.10B1784,2013-02-01 14:26:00,
2013-02-01 09:31:00,19.2,12.0,30.19,SW,220,7.0,8.0,73,0.00,,,0.00,WeatherCatV1.10B1784,2013-02-01 14:31:00,
2013-02-01 09:36:00,19.1,11.6,30.20,SSW,204,4.0,8.0,72,0.00,,,0.00,WeatherCatV1.10B1784,2013-02-01 14:36:00,
2013-02-01 09:41:00,19.3,11.5,30.20,SSE,163,1.0,7.0,71,0.00,,,0.00,WeatherCatV1.10B1784,2013-02-01 14:41:00,
2013-02-01 09:46:00,19.1,11.3,30.20,SSE,163,2.0,10.0,71,0.00,,,0.00,WeatherCatV1.10B1784,2013-02-01 14:46:00,
2013-02-01 09:51:00,19.0,11.2,30.21,SSW,208,7.0,8.0,71,0.00,,,0.00,WeatherCatV1.10B1784,2013-02-01 14:51:00,
2013-02-01 09:56:00,18.9,10.4,30.21,SSW,198,0.0,9.0,69,0.00,,,0.00,WeatherCatV1.10B1784,2013-02-01 14:56:00,
2013-02-01 10:01:00,19.0,10.5,30.21,SW,230,3.0,8.0,69,0.00,,,0.00,WeatherCatV1.10B1784,2013-02-01 15:01:00,
2013-02-01 10:06:00,19.0,10.9,30.22,SSW,207,6.0,8.0,70,0.00,,,0.00,WeatherCatV1.10B1784,2013-02-01 15:06:00,
2013-02-01 10:11:00,19.0,9.9,30.22,SSW,193,7.0,7.0,67,0.00,,,0.00,WeatherCatV1.10B1784,2013-02-01 15:11:00,
2013-02-01 10:16:00,19.2,10.7,30.22,South,186,4.0,7.0,69,0.00,,,0.00,WeatherCatV1.10B1784,2013-02-01 15:16:00,
2013-02-01 10:21:00,19.3,10.8,30.22,West,279,6.0,18.0,69,0.00,,,0.00,WeatherCatV1.10B1784,2013-02-01 15:21:00,
2013-02-01 10:26:00,19.0,10.5,30.23,SSW,206,5.0,9.0,69,0.00,,,0.00,WeatherCatV1.10B1784,2013-02-01 15:26:00,
2013-02-01 10:31:00,19.2,11.0,30.23,South,170,2.0,6.0,70,0.00,,,0.00,WeatherCatV1.10B1784,2013-02-01 15:31:00,
2013-02-01 10:36:00,19.4,10.9,30.24,South,169,3.0,9.0,69,0.00,,,0.00,WeatherCatV1.10B1784,2013-02-01 15:36:00,
2013-02-01 10:41:00,19.5,10.4,30.24,SW,225,7.0,8.0,67,0.00,,,0.00,WeatherCatV1.10B1784,2013-02-01 15:41:00,
2013-02-01 10:46:00,19.5,10.4,30.24,SSW,196,2.0,4.0,67,0.00,,,0.00,WeatherCatV1.10B1784,2013-02-01 15:46:00,
2013-02-01 10:51:00,19.9,10.7,30.24,SSE,152,2.0,10.0,67,0.00,,,0.00,WeatherCatV1.10B1784,2013-02-01 15:51:00,
2013-02-01 10:56:00,20.1,10.6,30.25,SW,221,4.0,7.0,66,0.00,,,0.00,WeatherCatV1.10B1784,2013-02-01 15:56:00,
2013-02-01 11:01:00,20.1,10.9,30.25,South,175,2.0,4.0,67,0.00,,,0.00,WeatherCatV1.10B1784,2013-02-01 16:01:00,
2013-02-01 11:06:00,20.5,11.3,30.25,South,184,3.0,10.0,67,0.00,,,0.00,WeatherCatV1.10B1784,2013-02-01 16:06:00,
2013-02-01 11:11:00,20.5,11.0,30.24,SE,127,5.0,5.0,66,0.00,,,0.00,WeatherCatV1.10B1784,2013-02-01 16:11:00,
2013-02-01 11:16:00,21.1,11.9,30.24,WSW,242,0.0,8.0,67,0.00,,,0.00,WeatherCatV1.10B1784,2013-02-01 16:16:00,
2013-02-01 11:21:00,21.5,12.9,30.25,SSE,154,4.0,4.0,69,0.00,,,0.00,WeatherCatV1.10B1784,2013-02-01 16:21:00,
2013-02-01 11:26:00,21.9,12.0,30.24,South,173,4.0,8.0,65,0.00,,,0.00,WeatherCatV1.10B1784,2013-02-01 16:26:00,
2013-02-01 11:31:00,21.6,11.3,30.24,SSW,200,4.0,7.0,64,0.00,,,0.00,WeatherCatV1.10B1784,2013-02-01 16:31:00,
2013-02-01 11:36:00,21.6,11.7,30.25,SSE,151,1.0,8.0,65,0.00,,,0.00,WeatherCatV1.10B1784,2013-02-01 16:36:00,
2013-02-01 11:41:00,21.8,12.2,30.25,South,169,2.0,8.0,66,0.00,,,0.00,WeatherCatV1.10B1784,2013-02-01 16:41:00,
2013-02-01 11:46:00,21.9,12.0,30.25,SW,226,6.0,9.0,65,0.00,,,0.00,WeatherCatV1.10B1784,2013-02-01 16:46:00,
2013-02-01 11:51:00,21.7,10.4,30.25,East,96,1.0,13.0,61,0.00,,,0.00,WeatherCatV1.10B1784,2013-02-01 16:51:00,
2013-02-01 11:56:00,22.0,11.7,30.25,South,177,2.0,7.0,64,0.00,,,0.00,WeatherCatV1.10B1784,2013-02-01 16:56:00,
2013-02-01 12:01:00,22.6,11.2,30.25,SSW,197,5.0,9.0,61,0.00,,,0.00,WeatherCatV1.10B1784,2013-02-01 17:01:00,
2013-02-01 12:06:00,22.6,10.5,30.25,SSE,167,3.0,9.0,59,0.00,,,0.00,WeatherCatV1.10B1784,2013-02-01 17:06:00,
2013-02-01 12:11:00,22.8,11.4,30.25,SSW,207,8.0,10.0,61,0.00,,,0.00,WeatherCatV1.10B1784,2013-02-01 17:11:00,
2013-02-01 12:16:00,22.6,10.5,30.25,SSE,157,3.0,10.0,59,0.00,,,0.00,WeatherCatV1.10B1784,2013-02-01 17:16:00,
2013-02-01 12:21:00,22.6,11.6,30.25,SW,214,3.0,3.0,62,0.00,,,0.00,WeatherCatV1.10B1784,2013-02-01 17:21:00,
2013-02-01 12:26:00,22.8,11.4,30.25,SSW,196,5.0,8.0,61,0.00,,,0.00,WeatherCatV1.10B1784,2013-02-01 17:26:00,
2013-02-01 12:31:00,23.0,13.0,30.25,South,186,1.0,3.0,65,0.00,,,0.00,WeatherCatV1.10B1784,2013-02-01 17:31:00,
2013-02-01 12:36:00,23.5,11.7,30.25,South,189,0.0,6.0,60,0.00,,,0.00,WeatherCatV1.10B1784,2013-02-01 17:36:00,
2013-02-01 12:41:00,23.5,10.9,30.25,SSW,200,4.0,6.0,58,0.00,,,0.00,WeatherCatV1.10B1784,2013-02-01 17:41:00,
2013-02-01 12:46:00,23.6,11.0,30.25,SSE,155,0.0,7.0,58,0.00,,,0.00,WeatherCatV1.10B1784,2013-02-01 17:46:00,
2013-02-01 12:51:00,24.0,11.8,30.25,South,175,2.0,7.0,59,0.00,,,0.00,WeatherCatV1.10B1784,2013-02-01 17:51:00,
2013-02-01 12:56:00,24.3,11.3,30.25,WSW,256,0.0,8.0,57,0.00,,,0.00,WeatherCatV1.10B1784,2013-02-01 17:56:00,
2013-02-01 13:01:00,24.3,11.3,30.25,South,180,3.0,5.0,57,0.00,,,0.00,WeatherCatV1.10B1784,2013-02-01 18:01:00,
2013-02-01 13:06:00,24.8,12.1,30.25,SW,217,6.0,7.0,58,0.00,,,0.00,WeatherCatV1.10B1784,2013-02-01 18:06:00,
2013-02-01 13:11:00,25.1,11.6,30.25,South,171,5.0,5.0,56,0.00,,,0.00,WeatherCatV1.10B1784,2013-02-01 18:11:00,
2013-02-01 13:16:00,25.0,11.1,30.25,SSE,160,4.0,9.0,55,0.00,,,0.00,WeatherCatV1.10B1784,2013-02-01 18:16:00,
2013-02-01 13:21:00,25.2,11.7,30.24,NE,44,3.0,8.0,56,0.00,,,0.00,WeatherCatV1.10B1784,2013-02-01 18:21:00,
2013-02-01 13:26:00,25.1,12.4,30.24,East,96,3.0,5.0,58,0.00,,,0.00,WeatherCatV1.10B1784,2013-02-01 18:26:00,
2013-02-01 13:31:00,25.4,12.3,30.24,SSW,202,6.0,6.0,57,0.00,,,0.00,WeatherCatV1.10B1784,2013-02-01 18:31:00,
2013-02-01 13:41:00,25.5,12.0,30.24,SSE,164,4.0,5.0,56,0.00,,,0.00,WeatherCatV1.10B1784,2013-02-01 18:41:00,
2013-02-01 13:46:00,25.7,11.0,30.24,SSW,192,3.0,8.0,53,0.00,,,0.00,WeatherCatV1.10B1784,2013-02-01 18:46:00,
2013-02-01 13:51:00,25.6,10.4,30.25,South,173,2.0,8.0,52,0.00,,,0.00,WeatherCatV1.10B1784,2013-02-01 18:51:00,
2013-02-01 13:56:00,25.9,11.2,30.24,WSW,246,6.0,14.0,53,0.00,,,0.00,WeatherCatV1.10B1784,2013-02-01 18:56:00,
2013-02-01 14:01:00,26.2,11.0,30.24,South,185,3.0,6.0,52,0.00,,,0.00,WeatherCatV1.10B1784,2013-02-01 19:01:00,
2013-02-01 14:06:00,26.1,10.5,30.24,SSE,153,2.0,4.0,51,0.00,,,0.00,WeatherCatV1.10B1784,2013-02-01 19:06:00,
2013-02-01 14:11:00,26.6,11.4,30.24,East,99,3.0,3.0,52,0.00,,,0.00,WeatherCatV1.10B1784,2013-02-01 19:11:00,
2013-02-01 14:16:00,26.7,11.9,30.24,ESE,117,1.0,4.0,53,0.00,,,0.00,WeatherCatV1.10B1784,2013-02-01 19:16:00,
2013-02-01 14:21:00,26.8,10.2,30.24,SW,218,6.0,6.0,49,0.00,,,0.00,WeatherCatV1.10B1784,2013-02-01 19:21:00,
2013-02-01 14:26:00,26.6,10.0,30.24,SW,229,0.0,5.0,49,0.00,,,0.00,WeatherCatV1.10B1784,2013-02-01 19:26:00,
2013-02-01 14:31:00,26.7,10.6,30.24,West,269,4.0,5.0,50,0.00,,,0.00,WeatherCatV1.10B1784,2013-02-01 19:31:00,
2013-02-01 14:36:00,26.8,9.8,30.24,SSE,162,2.0,7.0,48,0.00,,,0.00,WeatherCatV1.10B1784,2013-02-01 19:36:00,
2013-02-01 14:41:00,27.0,10.4,30.24,SSW,196,5.0,5.0,49,0.00,,,0.00,WeatherCatV1.10B1784,2013-02-01 19:41:00,
2013-02-01 14:46:00,27.3,11.6,30.24,SSE,161,2.0,7.0,51,0.00,,,0.00,WeatherCatV1.10B1784,2013-02-01 19:46:00,
2013-02-01 14:51:00,27.6,11.4,30.24,SSW,205,2.0,5.0,50,0.00,,,0.00,WeatherCatV1.10B1784,2013-02-01 19:51:00,
2013-02-01 14:56:00,27.7,12.0,30.24,ENE,78,1.0,5.0,51,0.00,,,0.00,WeatherCatV1.10B1784,2013-02-01 19:56:00,
2013-02-01 15:01:00,27.8,10.7,30.24,South,174,2.0,4.0,48,0.00,,,0.00,WeatherCatV1.10B1784,2013-02-01 20:01:00,
2013-02-01 15:06:00,27.5,11.3,30.24,South,180,2.0,4.0,50,0.00,,,0.00,WeatherCatV1.10B1784,2013-02-01 20:06:00,
2013-02-01 15:11:00,27.4,11.7,30.24,SSE,159,3.0,4.0,51,0.00,,,0.00,WeatherCatV1.10B1784,2013-02-01 20:11:00,
2013-02-01 15:16:00,27.9,10.8,30.24,SW,219,5.0,7.0,48,0.00,,,0.00,WeatherCatV1.10B1784,2013-02-01 20:16:00,
2013-02-01 15:21:00,27.8,10.7,30.24,SSE,165,1.0,3.0,48,0.00,,,0.00,WeatherCatV1.10B1784,2013-02-01 20:21:00,
2013-02-01 15:26:00,28.0,9.4,30.24,SSW,196,1.0,3.0,45,0.00,,,0.00,WeatherCatV1.10B1784,2013-02-01 20:26:00,
2013-02-01 15:31:00,28.2,11.1,30.24,SSW,211,6.0,8.0,48,0.00,,,0.00,WeatherCatV1.10B1784,2013-02-01 20:31:00,
2013-02-01 15:36:00,28.2,9.1,30.24,ESE,118,2.0,7.0,44,0.00,,,0.00,WeatherCatV1.10B1784,2013-02-01 20:36:00,
2013-02-01 15:41:00,28.3,12.1,30.24,South,182,3.0,3.0,50,0.00,,,0.00,WeatherCatV1.10B1784,2013-02-01 20:41:00,
2013-02-01 15:46:00,28.5,9.9,30.24,South,180,3.0,4.0,45,0.00,,,0.00,WeatherCatV1.10B1784,2013-02-01 20:46:00,
2013-02-01 15:51:00,28.5,9.9,30.24,South,180,3.0,3.0,45,0.00,,,0.00,WeatherCatV1.10B1784,2013-02-01 20:51:00,
2013-02-01 15:56:00,28.4,9.8,30.24,SSW,205,6.0,7.0,45,0.00,,,0.00,WeatherCatV1.10B1784,2013-02-01 20:56:00,
2013-02-01 16:01:00,28.2,9.1,30.24,South,175,3.0,5.0,44,0.00,,,0.00,WeatherCatV1.10B1784,2013-02-01 21:01:00,
2013-02-01 16:06:00,27.9,8.8,30.24,SSE,165,2.0,4.0,44,0.00,,,0.00,WeatherCatV1.10B1784,2013-02-01 21:06:00,
2013-02-01 16:11:00,28.0,9.9,30.24,SSE,160,3.0,4.0,46,0.00,,,0.00,WeatherCatV1.10B1784,2013-02-01 21:11:00,
2013-02-01 16:16:00,27.8,9.7,30.25,South,175,2.0,2.0,46,0.00,,,0.00,WeatherCatV1.10B1784,2013-02-01 21:16:00,
2013-02-01 16:21:00,27.5,8.5,30.25,SSE,157,1.0,9.0,44,0.00,,,0.00,WeatherCatV1.10B1784,2013-02-01 21:21:00,
2013-02-01 16:26:00,27.4,8.9,30.25,WNW,300,1.0,6.0,45,0.00,,,0.00,WeatherCatV1.10B1784,2013-02-01 21:26:00,
2013-02-01 16:31:00,27.7,8.7,30.25,NW,306,1.0,2.0,44,0.00,,,0.00,WeatherCatV1.10B1784,2013-02-01 21:31:00,
2013-02-01 16:36:00,28.0,9.4,30.25,South,173,3.0,6.0,45,0.00,,,0.00,WeatherCatV1.10B1784,2013-02-01 21:36:00,
2013-02-01 16:41:00,28.0,9.4,30.25,West,265,1.0,4.0,45,0.00,,,0.00,WeatherCatV1.10B1784,2013-02-01 21:41:00,
2013-02-01 16:46:00,28.1,10.0,30.25,South,177,0.0,2.0,46,0.00,,,0.00,WeatherCatV1.10B1784,2013-02-01 21:46:00,
2013-02-01 16:56:00,27.8,9.3,30.26,SW,217,2.0,3.0,45,0.00,,,0.00,WeatherCatV1.10B1784,2013-02-01 21:56:00,
2013-02-01 17:01:00,27.6,8.1,30.25,SSW,205,2.0,4.0,43,0.00,,,0.00,WeatherCatV1.10B1784,2013-02-01 22:01:00,
2013-02-01 17:06:00,27.2,8.2,30.25,SW,225,4.0,4.0,44,0.00,,,0.00,WeatherCatV1.10B1784,2013-02-01 22:06:00,
2013-02-01 17:11:00,26.7,8.7,30.25,SSW,200,1.0,3.0,46,0.00,,,0.00,WeatherCatV1.10B1784,2013-02-01 22:11:00,
2013-02-01 17:16:00,26.5,8.6,30.25,WSW,243,2.0,4.0,46,0.00,,,0.00,WeatherCatV1.10B1784,2013-02-01 22:16:00,
2013-02-01 17:21:00,26.2,7.8,30.25,WSW,248,0.0,2.0,45,0.00,,,0.00,WeatherCatV1.10B1784,2013-02-01 22:21:00,
2013-02-01 17:26:00,25.6,8.2,30.25,NNW,346,0.0,5.0,47,0.00,,,0.00,WeatherCatV1.10B1784,2013-02-01 22:26:00,
2013-02-01 17:31:00,25.2,8.3,30.25,South,180,0.0,3.0,48,0.00,,,0.00,WeatherCatV1.10B1784,2013-02-01 22:31:00,
2013-02-01 17:36:00,25.0,8.1,30.26,NW,319,1.0,5.0,48,0.00,,,0.00,WeatherCatV1.10B1784,2013-02-01 22:36:00,
2013-02-01 17:41:00,24.7,7.4,30.25,East,101,2.0,5.0,47,0.00,,,0.00,WeatherCatV1.10B1784,2013-02-01 22:41:00,
2013-02-01 17:46:00,24.4,8.9,30.25,ESE,105,0.0,2.0,51,0.00,,,0.00,WeatherCatV1.10B1784,2013-02-01 22:46:00,
2013-02-01 17:51:00,24.3,7.9,30.25,NNE,16,0.0,0.0,49,0.00,,,0.00,WeatherCatV1.10B1784,2013-02-01 22:51:00,
2013-02-01 17:56:00,24.1,8.2,30.25,South,185,0.0,2.0,50,0.00,,,0.00,WeatherCatV1.10B1784,2013-02-01 22:56:00,
2013-02-01 18:01:00,24.0,8.5,30.25,NE,43,1.0,2.0,51,0.00,,,0.00,WeatherCatV1.10B1784,2013-02-01 23:01:00,
2013-02-01 18:06:00,23.8,7.9,30.25,SSE,153,1.0,2.0,50,0.00,,,0.00,WeatherCatV1.10B1784,2013-02-01 23:06:00,
2013-02-01 18:11:00,23.7,8.2,30.25,NNW,329,0.0,4.0,51,0.00,,,0.00,WeatherCatV1.10B1784,2013-02-01 23:11:00,
2013-02-01 18:16:00,23.5,8.1,30.25,ENE,70,2.0,3.0,51,0.00,,,0.00,WeatherCatV1.10B1784,2013-02-01 23:16:00,
2013-02-01 18:21:00,23.3,8.7,30.25,NE,41,0.0,3.0,53,0.00,,,0.00,WeatherCatV1.10B1784,2013-02-01 23:21:00,
2013-02-01 18:26:00,23.2,8.6,30.25,SSE,148,2.0,2.0,53,0.00,,,0.00,WeatherCatV1.10B1784,2013-02-01 23:26:00,
2013-02-01 18:31:00,23.0,8.0,30.25,NE,34,2.0,3.0,52,0.00,,,0.00,WeatherCatV1.10B1784,2013-02-01 23:31:00,
2013-02-01 18:36:00,22.8,7.8,30.25,WSW,249,0.0,4.0,52,0.00,,,0.00,WeatherCatV1.10B1784,2013-02-01 23:36:00,
2013-02-01 18:41:00,22.7,8.6,30.26,NNE,13,0.0,1.0,54,0.00,,,0.00,WeatherCatV1.10B1784,2013-02-01 23:41:00,
2013-02-01 18:46:00,22.6,8.9,30.26,SSE,152,0.0,2.0,55,0.00,,,0.00,WeatherCatV1.10B1784,2013-02-01 23:46:00,
2013-02-01 18:51:00,22.6,8.9,30.26,South,173,0.0,3.0,55,0.00,,,0.00,WeatherCatV1.10B1784,2013-02-01 23:51:00,
2013-02-01 18:56:00,22.6,8.5,30.26,SW,229,3.0,3.0,54,0.00,,,0.00,WeatherCatV1.10B1784,2013-02-01 23:56:00,
2013-02-01 19:01:00,22.5,8.4,30.26,South,176,1.0,2.0,54,0.00,,,0.00,WeatherCatV1.10B1784,2013-02-02 00:01:00,
2013-02-01 19:06:00,22.4,8.7,30.27,SSW,205,0.0,2.0,55,0.00,,,0.00,WeatherCatV1.10B1784,2013-02-02 00:06:00,
2013-02-01 19:11:00,22.4,9.1,30.27,SSW,205,0.0,1.0,56,0.00,,,0.00,WeatherCatV1.10B1784,2013-02-02 00:11:00,
2013-02-01 19:16:00,22.4,9.5,30.28,SW,227,3.0,3.0,57,0.00,,,0.00,WeatherCatV1.10B1784,2013-02-02 00:16:00,
2013-02-01 19:21:00,22.3,9.4,30.28,SW,219,0.0,1.0,57,0.00,,,0.00,WeatherCatV1.10B1784,2013-02-02 00:21:00,
2013-02-01 19:26:00,22.2,9.3,30.28,SSW,204,0.0,0.0,57,0.00,,,0.00,WeatherCatV1.10B1784,2013-02-02 00:26:00,
2013-02-01 19:31:00,22.1,9.2,30.27,SSW,209,0.0,0.0,57,0.00,,,0.00,WeatherCatV1.10B1784,2013-02-02 00:31:00,
2013-02-01 19:36:00,22.0,9.5,30.28,SSW,200,1.0,2.0,58,0.00,,,0.00,WeatherCatV1.10B1784,2013-02-02 00:36:00,
2013-02-01 19:41:00,21.9,9.0,30.28,SSW,203,0.0,2.0,57,0.00,,,0.00,WeatherCatV1.10B1784,2013-02-02 00:41:00,
2013-02-01 19:46:00,21.8,9.7,30.28,SSW,203,0.0,2.0,59,0.00,,,0.00,WeatherCatV1.10B1784,2013-02-02 00:46:00,
2013-02-01 19:51:00,21.7,8.8,30.28,SW,217,1.0,2.0,57,0.00,,,0.00,WeatherCatV1.10B1784,2013-02-02 00:51:00,
2013-02-01 19:56:00,21.6,8.8,30.29,South,191,0.0,2.0,57,0.00,,,0.00,WeatherCatV1.10B1784,2013-02-02 00:56:00,
2013-02-01 20:01:00,21.6,9.9,30.29,SW,219,0.0,0.0,60,0.00,,,0.00,WeatherCatV1.10B1784,2013-02-02 01:01:00,
2013-02-01 20:06:00,21.6,8.8,30.29,SW,221,0.0,1.0,57,0.00,,,0.00,WeatherCatV1.10B1784,2013-02-02 01:06:00,
2013-02-01 20:11:00,21.5,9.0,30.29,South,188,1.0,2.0,58,0.00,,,0.00,WeatherCatV1.10B1784,2013-02-02 01:11:00,
2013-02-01 20:16:00,21.5,8.3,30.29,WSW,248,3.0,4.0,56,0.00,,,0.00,WeatherCatV1.10B1784,2013-02-02 01:16:00,
2013-02-01 20:21:00,21.5,9.0,30.28,SSW,206,1.0,1.0,58,0.00,,,0.00,WeatherCatV1.10B1784,2013-02-02 01:21:00,
2013-02-01 20:26:00,21.5,8.7,30.29,SW,214,2.0,3.0,57,0.00,,,0.00,WeatherCatV1.10B1784,2013-02-02 01:26:00,
2013-02-01 20:31:00,21.4,9.3,30.29,SSW,208,0.0,2.0,59,0.00,,,0.00,WeatherCatV1.10B1784,2013-02-02 01:31:00,
2013-02-01 20:36:00,21.4,9.3,30.29,WSW,242,1.0,2.0,59,0.00,,,0.00,WeatherCatV1.10B1784,2013-02-02 01:36:00,
2013-02-01 20:41:00,21.4,8.6,30.28,WSW,243,0.0,0.0,57,0.00,,,0.00,WeatherCatV1.10B1784,2013-02-02 01:41:00,
2013-02-01 20:46:00,21.4,9.7,30.28,SW,216,0.0,1.0,60,0.00,,,0.00,WeatherCatV1.10B1784,2013-02-02 01:46:00,
2013-02-01 20:51:00,21.4,9.3,30.29,South,174,1.0,3.0,59,0.00,,,0.00,WeatherCatV1.10B1784,2013-02-02 01:51:00,
2013-02-01 20:56:00,21.4,9.3,30.29,SSE,162,0.0,1.0,59,0.00,,,0.00,WeatherCatV1.10B1784,2013-02-02 01:56:00,
2013-02-01 21:01:00,21.3,9.2,30.29,SSW,207,0.0,1.0,59,0.00,,,0.00,WeatherCatV1.10B1784,2013-02-02 02:01:00,
2013-02-01 21:06:00,21.3,9.6,30.29,SSW,209,0.0,0.0,60,0.00,,,0.00,WeatherCatV1.10B1784,2013-02-02 02:06:00,
2013-02-01 21:11:00,21.3,9.6,30.29,SW,222,0.0,2.0,60,0.00,,,0.00,WeatherCatV1.10B1784,2013-02-02 02:11:00,
2013-02-01 21:16:00,21.2,9.1,30.29,NE,37,1.0,3.0,59,0.00,,,0.00,WeatherCatV1.10B1784,2013-02-02 02:16:00,
2013-02-01 21:21:00,21.2,9.5,30.29,SSE,157,1.0,1.0,60,0.00,,,0.00,WeatherCatV1.10B1784,2013-02-02 02:21:00,
2013-02-01 21:26:00,21.2,9.5,30.29,SSW,198,1.0,1.0,60,0.00,,,0.00,WeatherCatV1.10B1784,2013-02-02 02:26:00,
2013-02-01 21:31:00,21.1,10.1,30.29,South,170,1.0,2.0,62,0.00,,,0.00,WeatherCatV1.10B1784,2013-02-02 02:31:00,
2013-02-01 21:36:00,21.1,9.8,30.29,WSW,257,0.0,1.0,61,0.00,,,0.00,WeatherCatV1.10B1784,2013-02-02 02:36:00,
2013-02-01 21:41:00,21.1,9.4,30.29,SW,234,0.0,2.0,60,0.00,,,0.00,WeatherCatV1.10B1784,2013-02-02 02:41:00,
2013-02-01 21:46:00,21.1,10.1,30.29,West,267,0.0,0.0,62,0.00,,,0.00,WeatherCatV1.10B1784,2013-02-02 02:46:00,
2013-02-01 21:51:00,21.0,10.4,30.29,SW,223,1.0,2.0,63,0.00,,,0.00,WeatherCatV1.10B1784,2013-02-02 02:51:00,
2013-02-01 21:56:00,20.9,10.7,30.29,SSW,198,1.0,1.0,64,0.00,,,0.00,WeatherCatV1.10B1784,2013-02-02 02:56:00,
2013-02-01 22:01:00,20.9,10.3,30.28,SSW,203,0.0,1.0,63,0.00,,,0.00,WeatherCatV1.10B1784,2013-02-02 03:01:00,
2013-02-01 22:06:00,20.8,10.6,30.29,SW,216,0.0,1.0,64,0.00,,,0.00,WeatherCatV1.10B1784,2013-02-02 03:06:00,
2013-02-01 22:11:00,20.8,10.6,30.29,SSE,148,1.0,2.0,64,0.00,,,0.00,WeatherCatV1.10B1784,2013-02-02 03:11:00,
2013-02-01 22:16:00,20.7,9.8,30.29,ESE,116,0.0,2.0,62,0.00,,,0.00,WeatherCatV1.10B1784,2013-02-02 03:16:00,
2013-02-01 22:21:00,20.7,10.5,30.29,South,190,0.0,0.0,64,0.00,,,0.00,WeatherCatV1.10B1784,2013-02-02 03:21:00,
2013-02-01 22:31:00,20.6,10.4,30.29,SSW,207,0.0,0.0,64,0.00,,,0.00,WeatherCatV1.10B1784,2013-02-02 03:31:00,
2013-02-01 22:36:00,20.6,11.1,30.29,SSW,207,0.0,0.0,66,0.00,,,0.00,WeatherCatV1.10B1784,2013-02-02 03:36:00,
2013-02-01 22:41:00,20.5,10.6,30.29,SSW,207,0.0,0.0,65,0.00,,,0.00,WeatherCatV1.10B1784,2013-02-02 03:41:00,
2013-02-01 22:46:00,20.4,10.9,30.29,SSW,207,0.0,0.0,66,0.00,,,0.00,WeatherCatV1.10B1784,2013-02-02 03:46:00,
2013-02-01 22:51:00,20.4,11.2,30.30,SSW,207,0.0,0.0,67,0.00,,,0.00,WeatherCatV1.10B1784,2013-02-02 03:51:00,
2013-02-01 22:56:00,20.3,11.1,30.29,SSW,207,0.0,0.0,67,0.00,,,0.00,WeatherCatV1.10B1784,2013-02-02 03:56:00,
2013-02-01 23:01:00,20.2,10.7,30.30,SE,135,0.0,0.0,66,0.00,,,0.00,WeatherCatV1.10B1784,2013-02-02 04:01:00,
2013-02-01 23:06:00,20.1,11.9,30.30,SE,136,0.0,0.0,70,0.00,,,0.00,WeatherCatV1.10B1784,2013-02-02 04:06:00,
2013-02-01 23:11:00,20.2,11.7,30.30,SE,140,0.0,0.0,69,0.00,,,0.00,WeatherCatV1.10B1784,2013-02-02 04:11:00,
2013-02-01 23:16:00,20.2,12.0,30.30,SE,140,0.0,0.0,70,0.00,,,0.00,WeatherCatV1.10B1784,2013-02-02 04:16:00,
2013-02-01 23:21:00,20.3,12.1,30.30,SE,140,0.0,0.0,70,0.00,,,0.00,WeatherCatV1.10B1784,2013-02-02 04:21:00,
2013-02-01 23:26:00,20.4,11.9,30.30,SE,140,0.0,0.0,69,0.00,,,0.00,WeatherCatV1.10B1784,2013-02-02 04:26:00,
2013-02-01 23:31:00,20.4,11.5,30.30,SE,140,0.0,0.0,68,0.00,,,0.00,WeatherCatV1.10B1784,2013-02-02 04:31:00,
2013-02-01 23:36:00,20.3,10.8,30.30,SE,129,0.0,0.0,66,0.00,,,0.00,WeatherCatV1.10B1784,2013-02-02 04:36:00,
2013-02-01 23:41:00,20.2,11.4,30.30,SE,129,0.0,0.0,68,0.00,,,0.00,WeatherCatV1.10B1784,2013-02-02 04:41:00,
2013-02-01 23:46:00,20.2,11.7,30.30,ESE,105,0.0,1.0,69,0.00,,,0.00,WeatherCatV1.10B1784,2013-02-02 04:46:00,
2013-02-01 23:51:00,20.3,11.5,30.30,NE,53,0.0,2.0,68,0.00,,,0.00,WeatherCatV1.10B1784,2013-02-02 04:51:00,
2013-02-01 23:56:00,20.3,10.1,30.29,ENE,77,0.0,3.0,64,0.00,,,0.00,WeatherCatV1.10B1784,2013-02-02 04:56:00,